createdAt,value
2023-01-02T00:00:50.664Z,11.10
2023-01-02T00:03:17.478Z,11.00
2023-01-02T00:05:44.124Z,11.00
2023-01-02T00:08:11.167Z,11.00
2023-01-02T00:10:37.856Z,11.00
2023-01-02T00:13:04.407Z,11.00
2023-01-02T00:15:30.973Z,10.90
2023-01-02T00:17:57.589Z,11.00
2023-01-02T00:20:24.085Z,11.00
2023-01-02T00:22:50.700Z,10.90
2023-01-02T00:25:17.288Z,10.90
2023-01-02T00:27:43.819Z,10.90
2023-01-02T00:30:10.774Z,10.90
2023-01-02T00:32:37.327Z,10.80
2023-01-02T00:35:03.958Z,10.80
2023-01-02T00:37:30.469Z,10.80
2023-01-02T00:39:57.023Z,10.80
2023-01-02T00:42:23.593Z,10.80
2023-01-02T00:44:50.197Z,10.80
2023-01-02T00:47:16.701Z,10.70
2023-01-02T00:49:43.251Z,10.70
2023-01-02T00:52:09.780Z,10.70
2023-01-02T00:54:36.318Z,10.80
2023-01-02T00:57:03.024Z,10.70
2023-01-02T00:59:29.644Z,10.70
2023-01-02T01:01:56.318Z,10.80
2023-01-02T01:04:22.962Z,10.80
2023-01-02T01:06:49.526Z,10.70
2023-01-02T01:09:16.110Z,10.70
2023-01-02T01:11:42.613Z,10.80
2023-01-02T01:14:09.227Z,10.80
2023-01-02T01:16:35.843Z,10.80
2023-01-02T01:19:02.437Z,10.80
2023-01-02T01:21:29.385Z,10.90
2023-01-02T01:23:56.207Z,10.80
2023-01-02T01:26:23.276Z,10.80
2023-01-02T01:28:51.919Z,10.90
2023-01-02T01:31:18.504Z,10.90
2023-01-02T01:33:45.505Z,10.90
2023-01-02T01:36:14.310Z,10.90
2023-01-02T01:38:41.311Z,11.00
2023-01-02T01:41:08.303Z,11.00
2023-01-02T01:43:54.499Z,11.00
2023-01-02T01:46:20.994Z,11.00
2023-01-02T01:48:49.646Z,11.00
2023-01-02T01:51:16.958Z,11.00
2023-01-02T01:53:44.684Z,11.30
2023-01-02T01:56:11.997Z,10.90
2023-01-02T01:58:43.084Z,11.00
2023-01-02T02:01:13.992Z,11.00
2023-01-02T02:03:41.997Z,11.10
2023-01-02T02:06:08.604Z,11.10
2023-01-02T02:08:39.647Z,11.00
2023-01-02T02:11:06.660Z,11.00
2023-01-02T02:13:33.923Z,11.00
2023-01-02T02:16:00.749Z,11.00
2023-01-02T02:18:49.788Z,11.00
2023-01-02T02:21:19.286Z,10.90
2023-01-02T02:24:06.089Z,10.90
2023-01-02T02:26:51.923Z,10.90
2023-01-02T02:29:37.201Z,10.90
2023-01-02T02:32:22.075Z,10.80
2023-01-02T02:34:56.266Z,10.80
2023-01-02T02:37:46.040Z,10.80
2023-01-02T02:40:38.850Z,10.80
2023-01-02T02:43:08.450Z,10.80
2023-01-02T02:45:43.723Z,10.80
2023-01-02T02:48:20.652Z,10.50
2023-01-02T02:50:56.322Z,10.80
2023-01-02T02:53:28.988Z,10.80
2023-01-02T02:55:57.331Z,10.70
2023-01-02T02:58:25.160Z,10.80
2023-01-02T03:01:01.211Z,10.70
2023-01-02T03:03:27.972Z,10.70
2023-01-02T03:06:05.059Z,10.70
2023-01-02T03:08:50.509Z,10.60
2023-01-02T03:11:17.168Z,10.60
2023-01-02T03:13:48.162Z,10.60
2023-01-02T03:16:17.532Z,10.60
2023-01-02T03:19:04.330Z,10.60
2023-01-02T03:21:52.296Z,10.60
2023-01-02T03:24:20.086Z,10.60
2023-01-02T03:26:48.584Z,10.60
2023-01-02T03:29:19.722Z,10.60
2023-01-02T03:31:48.440Z,10.60
2023-01-02T03:34:16.603Z,10.70
2023-01-02T03:36:45.339Z,10.60
2023-01-02T03:39:19.659Z,10.60
2023-01-02T03:41:53.812Z,10.70
2023-01-02T03:44:22.433Z,10.60
2023-01-02T03:47:03.317Z,10.60
2023-01-02T03:49:32.174Z,10.60
2023-01-02T03:51:59.000Z,10.60
2023-01-02T03:54:26.055Z,10.60
2023-01-02T03:56:52.537Z,10.60
2023-01-02T03:59:30.739Z,10.60
2023-01-02T04:02:00.507Z,10.60
2023-01-02T04:04:32.929Z,10.60
2023-01-02T04:07:00.985Z,10.60
2023-01-02T04:09:29.320Z,10.60
2023-01-02T04:11:58.560Z,10.60
2023-01-02T04:14:35.893Z,10.70
2023-01-02T04:17:04.386Z,10.40
2023-01-02T04:19:57.311Z,10.70
2023-01-02T04:22:25.598Z,10.60
2023-01-02T04:24:57.824Z,10.60
2023-01-02T04:27:28.600Z,10.60
2023-01-02T04:29:55.700Z,10.60
2023-01-02T04:32:28.316Z,10.60
2023-01-02T04:34:56.492Z,10.50
2023-01-02T04:37:29.089Z,10.50
2023-01-02T04:39:56.879Z,10.60
2023-01-02T04:42:23.396Z,10.60
2023-01-02T04:44:49.953Z,10.60
2023-01-02T04:47:21.697Z,10.60
2023-01-02T04:49:48.522Z,10.60
2023-01-02T04:52:15.052Z,10.60
2023-01-02T04:54:41.634Z,10.60
2023-01-02T04:57:08.172Z,10.60
2023-01-02T04:59:34.726Z,10.50
2023-01-02T05:02:01.336Z,10.60
2023-01-02T05:04:28.006Z,10.60
2023-01-02T05:06:54.540Z,10.50
2023-01-02T05:09:21.103Z,10.70
2023-01-02T05:11:47.750Z,10.50
2023-01-02T05:14:14.386Z,10.50
2023-01-02T05:16:40.990Z,10.50
2023-01-02T05:19:07.564Z,10.40
2023-01-02T05:21:53.250Z,10.40
2023-01-02T05:24:19.837Z,10.40
2023-01-02T05:26:46.397Z,10.50
2023-01-02T05:29:12.992Z,10.40
2023-01-02T05:31:39.490Z,10.30
2023-01-02T05:34:06.015Z,10.40
2023-01-02T05:36:32.588Z,10.30
2023-01-02T05:38:59.213Z,10.40
2023-01-02T05:41:25.797Z,10.40
2023-01-02T05:43:54.318Z,10.30
2023-01-02T05:46:21.161Z,10.30
2023-01-02T05:48:47.804Z,10.30
2023-01-02T05:51:15.272Z,10.30
2023-01-02T05:53:41.838Z,10.30
2023-01-02T05:56:09.770Z,10.30
2023-01-02T05:58:37.620Z,10.30
2023-01-02T06:01:06.969Z,10.30
2023-01-02T06:03:33.561Z,10.30
2023-01-02T06:06:04.414Z,10.20
2023-01-02T06:08:31.145Z,10.20
2023-01-02T06:10:57.711Z,10.20
2023-01-02T06:13:24.282Z,10.20
2023-01-02T06:15:52.493Z,10.20
2023-01-02T06:18:19.678Z,10.10
2023-01-02T06:20:46.230Z,10.20
2023-01-02T06:23:12.744Z,10.20
2023-01-02T06:25:39.302Z,10.20
2023-01-02T06:28:05.797Z,10.20
2023-01-02T06:30:32.358Z,10.20
2023-01-02T06:32:58.927Z,10.20
2023-01-02T06:35:25.690Z,10.10
2023-01-02T06:37:52.188Z,10.20
2023-01-02T06:40:18.722Z,10.20
2023-01-02T06:42:45.333Z,10.20
2023-01-02T06:45:12.237Z,10.20
2023-01-02T06:47:38.748Z,10.20
2023-01-02T06:50:05.462Z,10.10
2023-01-02T06:52:31.991Z,10.10
2023-01-02T06:54:58.501Z,10.10
2023-01-02T06:57:25.040Z,10.10
2023-01-02T06:59:51.600Z,10.10
2023-01-02T07:02:18.407Z,10.10
2023-01-02T07:04:45.093Z,10.10
2023-01-02T07:07:11.709Z,10.10
2023-01-02T07:09:38.249Z,10.10
2023-01-02T07:12:04.980Z,10.10
2023-01-02T07:14:31.480Z,10.10
2023-01-02T07:16:58.081Z,10.20
2023-01-02T07:19:24.657Z,10.20
2023-01-02T07:21:51.239Z,10.20
2023-01-02T07:24:17.814Z,10.30
2023-01-02T07:26:44.494Z,10.20
2023-01-02T07:29:11.101Z,10.30
2023-01-02T07:31:37.900Z,10.20
2023-01-02T07:34:04.490Z,10.20
2023-01-02T07:36:31.082Z,10.20
2023-01-02T07:38:57.572Z,10.40
2023-01-02T07:41:25.349Z,10.30
2023-01-02T07:43:53.501Z,10.30
2023-01-02T07:46:20.289Z,10.40
2023-01-02T07:48:47.307Z,10.30
2023-01-02T07:51:16.399Z,10.30
2023-01-02T07:53:44.999Z,10.30
2023-01-02T07:56:11.606Z,10.30
2023-01-02T07:58:38.229Z,10.40
2023-01-02T08:01:08.463Z,10.40
2023-01-02T08:03:35.449Z,10.40
2023-01-02T08:06:02.895Z,10.50
2023-01-02T08:08:29.731Z,10.50
2023-01-02T08:10:56.289Z,10.60
2023-01-02T08:13:22.869Z,10.60
2023-01-02T08:15:49.470Z,10.70
2023-01-02T08:18:15.965Z,10.90
2023-01-02T08:20:42.519Z,10.90
2023-01-02T08:23:09.109Z,10.90
2023-01-02T08:25:35.611Z,10.90
2023-01-02T08:28:02.093Z,11.00
2023-01-02T08:30:28.614Z,11.10
2023-01-02T08:32:55.196Z,11.10
2023-01-02T08:35:37.221Z,11.20
2023-01-02T08:38:04.749Z,11.30
2023-01-02T08:40:31.287Z,11.30
2023-01-02T08:42:57.796Z,11.30
2023-01-02T08:45:24.345Z,11.30
2023-01-02T08:47:50.874Z,11.40
2023-01-02T08:50:17.458Z,11.40
2023-01-02T08:52:43.987Z,11.50
2023-01-02T08:55:10.633Z,11.70
2023-01-02T08:57:37.173Z,11.90
2023-01-02T09:00:04.136Z,12.20
2023-01-02T09:02:30.767Z,12.30
2023-01-02T09:04:57.478Z,12.40
2023-01-02T09:07:24.208Z,12.30
2023-01-02T09:09:50.741Z,12.40
2023-01-02T09:12:17.283Z,12.50
2023-01-02T09:14:43.850Z,12.50
2023-01-02T09:17:10.390Z,12.60
2023-01-02T09:19:36.921Z,12.70
2023-01-02T09:22:04.207Z,12.80
2023-01-02T09:24:30.781Z,12.90
2023-01-02T09:26:57.302Z,13.00
2023-01-02T09:29:23.830Z,13.10
2023-01-02T09:31:50.329Z,13.20
2023-01-02T09:34:16.843Z,13.30
2023-01-02T09:36:43.416Z,13.40
2023-01-02T09:39:09.943Z,13.50
2023-01-02T09:41:39.629Z,13.60
2023-01-02T09:44:06.134Z,13.90
2023-01-02T09:46:41.290Z,13.90
2023-01-02T09:49:10.253Z,14.10
2023-01-02T09:51:37.217Z,14.10
2023-01-02T09:54:04.610Z,14.30
2023-01-02T09:56:34.312Z,14.50
2023-01-02T09:59:12.840Z,14.80
2023-01-02T10:01:55.813Z,14.90
2023-01-02T10:04:25.463Z,15.10
2023-01-02T10:07:10.827Z,15.00
2023-01-02T10:09:54.211Z,15.20
2023-01-02T10:12:40.953Z,15.40
2023-01-02T10:15:12.185Z,15.50
2023-01-02T10:17:42.330Z,15.50
2023-01-02T10:20:23.858Z,15.60
2023-01-02T10:22:57.111Z,15.90
2023-01-02T10:25:30.519Z,16.60
2023-01-02T10:28:01.341Z,16.80
2023-01-02T10:30:30.830Z,17.20
2023-01-02T10:33:01.207Z,17.40
2023-01-02T10:35:36.469Z,17.50
2023-01-02T10:38:03.619Z,17.70
2023-01-02T10:40:30.512Z,17.50
2023-01-02T10:42:59.977Z,17.40
2023-01-02T10:45:26.741Z,17.40
2023-01-02T10:47:53.269Z,17.30
2023-01-02T10:50:25.491Z,17.30
2023-01-02T10:52:53.194Z,17.40
2023-01-02T10:55:33.752Z,17.80
2023-01-02T10:58:06.733Z,17.80
2023-01-02T11:00:35.192Z,18.10
2023-01-02T11:03:13.601Z,18.30
2023-01-02T11:05:48.254Z,18.70
2023-01-02T11:08:16.106Z,18.90
2023-01-02T11:10:44.043Z,19.00
2023-01-02T11:13:10.566Z,19.10
2023-01-02T11:15:46.806Z,19.20
2023-01-02T11:18:18.659Z,19.10
2023-01-02T11:20:49.984Z,19.00
2023-01-02T11:23:16.924Z,18.80
2023-01-02T11:25:44.511Z,18.70
2023-01-02T11:28:16.194Z,18.70
2023-01-02T11:30:47.024Z,18.80
2023-01-02T11:33:13.568Z,18.90
2023-01-02T11:35:47.244Z,18.70
2023-01-02T11:38:28.753Z,18.90
2023-01-02T11:41:01.770Z,19.10
2023-01-02T11:43:51.989Z,19.40
2023-01-02T11:46:22.404Z,19.70
2023-01-02T11:48:50.468Z,19.90
2023-01-02T11:51:18.590Z,20.20
2023-01-02T11:53:48.318Z,20.40
2023-01-02T11:56:17.747Z,20.70
2023-01-02T11:58:44.274Z,21.40
2023-01-02T12:01:23.013Z,21.80
2023-01-02T12:03:49.669Z,22.30
2023-01-02T12:06:24.267Z,22.50
2023-01-02T12:09:05.907Z,22.50
2023-01-02T12:11:51.396Z,22.70
2023-01-02T12:14:21.677Z,22.70
2023-01-02T12:17:06.797Z,22.80
2023-01-02T12:19:33.283Z,22.90
2023-01-02T12:22:02.953Z,23.00
2023-01-02T12:24:37.432Z,22.70
2023-01-02T12:27:22.530Z,22.40
2023-01-02T12:29:56.843Z,22.40
2023-01-02T12:32:42.451Z,22.10
2023-01-02T12:35:09.165Z,22.20
2023-01-02T12:37:44.113Z,22.10
2023-01-02T12:40:25.585Z,22.10
2023-01-02T12:42:58.255Z,21.80
2023-01-02T12:45:30.371Z,22.10
2023-01-02T12:48:04.961Z,22.40
2023-01-02T12:50:50.108Z,22.60
2023-01-02T12:53:16.665Z,23.10
2023-01-02T12:56:01.778Z,23.10
2023-01-02T12:58:28.385Z,22.90
2023-01-02T13:01:06.582Z,22.80
2023-01-02T13:03:33.220Z,22.60
2023-01-02T13:06:04.771Z,22.20
2023-01-02T13:08:57.478Z,21.70
2023-01-02T13:11:28.593Z,21.30
2023-01-02T13:13:55.435Z,20.90
2023-01-02T13:16:25.558Z,20.60
2023-01-02T13:19:16.751Z,20.30
2023-01-02T13:21:52.442Z,20.10
2023-01-02T13:24:21.670Z,19.90
2023-01-02T13:26:48.582Z,19.80
2023-01-02T13:29:15.100Z,19.70
2023-01-02T13:31:47.437Z,19.50
2023-01-02T13:34:26.616Z,19.50
2023-01-02T13:36:59.269Z,19.60
2023-01-02T13:39:32.516Z,19.50
2023-01-02T13:42:19.435Z,19.50
2023-01-02T13:44:48.112Z,19.40
2023-01-02T13:47:25.639Z,19.20
2023-01-02T13:50:06.186Z,19.10
2023-01-02T13:52:32.831Z,19.00
2023-01-02T13:55:28.565Z,18.90
2023-01-02T13:58:13.392Z,18.80
2023-01-02T14:00:41.472Z,18.50
2023-01-02T14:03:20.292Z,18.40
2023-01-02T14:05:58.984Z,18.30
2023-01-02T14:08:28.565Z,18.10
2023-01-02T14:11:00.131Z,17.90
2023-01-02T14:13:35.597Z,17.70
2023-01-02T14:16:05.226Z,17.60
2023-01-02T14:18:31.748Z,17.40
2023-01-02T14:20:58.398Z,17.40
2023-01-02T14:23:27.919Z,17.20
2023-01-02T14:25:54.805Z,17.10
2023-01-02T14:28:28.886Z,17.00
2023-01-02T14:30:56.352Z,16.90
2023-01-02T14:33:34.131Z,16.80
2023-01-02T14:36:06.891Z,16.70
2023-01-02T14:38:38.191Z,16.60
2023-01-02T14:41:23.312Z,16.50
2023-01-02T14:43:50.541Z,16.40
2023-01-02T14:46:19.721Z,16.30
2023-01-02T14:49:25.211Z,16.20
2023-01-02T14:51:55.599Z,16.10
2023-01-02T14:54:26.500Z,16.00
2023-01-02T14:56:55.996Z,15.90
2023-01-02T14:59:27.212Z,15.80
2023-01-02T15:01:58.646Z,15.80
2023-01-02T15:04:39.876Z,15.70
2023-01-02T15:07:16.874Z,15.60
2023-01-02T15:09:45.335Z,15.50
2023-01-02T15:12:43.924Z,15.40
2023-01-02T15:15:20.578Z,15.30
2023-01-02T15:17:47.780Z,15.30
2023-01-02T15:20:22.389Z,15.20
2023-01-02T15:22:55.014Z,15.10
2023-01-02T15:25:32.087Z,15.00
2023-01-02T15:27:58.617Z,15.00
2023-01-02T15:30:29.667Z,14.90
2023-01-02T15:32:56.298Z,14.90
2023-01-02T15:35:24.074Z,14.80
2023-01-02T15:37:50.905Z,14.70
2023-01-02T15:40:20.629Z,14.70
2023-01-02T15:43:06.535Z,14.70
2023-01-02T15:45:33.243Z,14.70
2023-01-02T15:47:59.865Z,14.70
2023-01-02T15:50:27.842Z,14.60
2023-01-02T15:53:06.070Z,14.60
2023-01-02T15:55:40.077Z,14.60
2023-01-02T15:58:20.689Z,14.40
2023-01-02T16:00:47.285Z,14.40
2023-01-02T16:04:01.518Z,14.40
2023-01-02T16:06:22.506Z,14.30
2023-01-02T16:08:50.290Z,14.20
2023-01-02T16:11:17.340Z,14.20
2023-01-02T16:14:05.850Z,14.10
2023-01-02T16:16:39.318Z,14.10
2023-01-02T16:19:06.025Z,14.10
2023-01-02T16:21:32.646Z,14.00
2023-01-02T16:23:59.288Z,14.00
2023-01-02T16:26:32.109Z,13.90
2023-01-02T16:28:58.858Z,13.90
2023-01-02T16:31:25.443Z,13.80
2023-01-02T16:33:52.339Z,13.80
2023-01-02T16:36:20.401Z,13.70
2023-01-02T16:38:49.954Z,13.70
2023-01-02T16:41:40.903Z,13.70
2023-01-02T16:44:14.663Z,13.70
2023-01-02T16:46:45.722Z,13.60
2023-01-02T16:49:14.279Z,13.60
2023-01-02T16:51:44.694Z,13.50
2023-01-02T16:54:11.755Z,13.40
2023-01-02T16:56:38.326Z,13.40
2023-01-02T16:59:05.165Z,13.30
2023-01-02T17:01:31.917Z,13.30
2023-01-02T17:03:58.527Z,13.20
2023-01-02T17:06:25.083Z,13.20
2023-01-02T17:08:51.657Z,13.10
2023-01-02T17:11:19.366Z,13.10
2023-01-02T17:13:46.070Z,12.90
2023-01-02T17:16:12.736Z,12.90
2023-01-02T17:18:39.796Z,12.90
2023-01-02T17:21:06.348Z,12.80
2023-01-02T17:23:32.976Z,12.80
2023-01-02T17:25:59.625Z,12.70
2023-01-02T17:28:27.464Z,12.70
2023-01-02T17:30:54.097Z,12.70
2023-01-02T17:33:20.830Z,12.70
2023-01-02T17:35:47.844Z,12.70
2023-01-02T17:38:14.685Z,12.70
2023-01-02T17:40:41.256Z,12.70
2023-01-02T17:43:07.876Z,12.60
2023-01-02T17:45:34.436Z,12.60
2023-01-02T17:48:07.803Z,12.60
2023-01-02T17:50:50.462Z,12.60
2023-01-02T17:53:16.965Z,12.60
2023-01-02T17:55:49.857Z,12.60
2023-01-02T17:58:16.434Z,12.60
2023-01-02T18:00:43.432Z,12.60
2023-01-02T18:03:10.041Z,12.60
2023-01-02T18:05:36.706Z,12.50
2023-01-02T18:08:03.990Z,12.60
2023-01-02T18:10:33.214Z,12.50
2023-01-02T18:13:00.164Z,12.50
2023-01-02T18:15:26.698Z,12.50
2023-01-02T18:17:54.711Z,12.50
2023-01-02T18:20:22.782Z,12.50
2023-01-02T18:22:50.953Z,12.50
2023-01-02T18:25:19.549Z,12.50
2023-01-02T18:27:46.653Z,12.40
2023-01-02T18:30:21.235Z,12.50
2023-01-02T18:32:48.731Z,12.50
2023-01-02T18:35:56.743Z,12.50
2023-01-02T18:38:28.690Z,12.40
2023-01-02T18:40:55.235Z,12.50
2023-01-02T18:43:27.954Z,12.50
2023-01-02T18:45:56.318Z,12.50
2023-01-02T18:48:23.136Z,12.60
2023-01-02T18:50:55.904Z,12.60
2023-01-02T18:53:23.584Z,12.60
2023-01-02T18:55:50.471Z,12.70
2023-01-02T18:58:29.010Z,12.70
2023-01-02T19:00:55.545Z,12.40
2023-01-02T19:03:26.282Z,12.80
2023-01-02T19:05:53.630Z,12.70
2023-01-02T19:08:40.378Z,12.80
2023-01-02T19:11:39.929Z,12.80
2023-01-02T19:14:25.567Z,12.80
2023-01-02T19:17:01.513Z,12.80
2023-01-02T19:19:28.109Z,12.80
2023-01-02T19:21:54.926Z,12.80
2023-01-02T19:24:28.070Z,12.80
2023-01-02T19:26:56.809Z,12.80
2023-01-02T19:29:24.804Z,12.80
2023-01-02T19:31:51.975Z,12.80
2023-01-02T19:34:27.513Z,12.80
2023-01-02T19:36:58.358Z,12.70
2023-01-02T19:39:26.716Z,12.70
2023-01-02T19:42:11.915Z,12.70
2023-01-02T19:44:38.482Z,12.70
2023-01-02T19:47:05.442Z,12.70
2023-01-02T19:49:31.970Z,12.70
2023-01-02T19:51:58.547Z,12.80
2023-01-02T19:54:25.058Z,12.80
2023-01-02T19:56:51.698Z,12.80
2023-01-02T19:59:18.188Z,12.80
2023-01-02T20:01:45.046Z,12.90
2023-01-02T20:04:11.684Z,12.80
2023-01-02T20:06:38.228Z,12.80
2023-01-02T20:09:04.719Z,12.80
2023-01-02T20:11:49.816Z,12.80
2023-01-02T20:14:16.391Z,12.80
2023-01-02T20:16:42.975Z,12.80
2023-01-02T20:19:09.483Z,12.80
2023-01-02T20:21:36.217Z,12.80
2023-01-02T20:24:02.804Z,12.80
2023-01-02T20:26:29.915Z,12.80
2023-01-02T20:28:56.446Z,12.70
2023-01-02T20:31:23.147Z,12.70
2023-01-02T20:33:49.772Z,12.70
2023-01-02T20:36:16.831Z,12.70
2023-01-02T20:38:43.588Z,12.60
2023-01-02T20:41:10.193Z,12.60
2023-01-02T20:43:36.773Z,12.60
2023-01-02T20:46:03.565Z,12.50
2023-01-02T20:48:30.276Z,12.50
2023-01-02T20:50:56.807Z,12.50
2023-01-02T20:53:23.415Z,12.50
2023-01-02T20:55:50.271Z,12.50
2023-01-02T20:58:17.751Z,12.40
2023-01-02T21:00:44.488Z,12.40
2023-01-02T21:03:11.487Z,12.30
2023-01-02T21:05:39.371Z,12.30
2023-01-02T21:08:06.754Z,12.30
2023-01-02T21:10:33.574Z,12.20
2023-01-02T21:13:12.920Z,12.30
2023-01-02T21:15:42.524Z,12.20
2023-01-02T21:18:09.948Z,12.20
2023-01-02T21:20:39.858Z,12.20
2023-01-02T21:23:09.326Z,12.10
2023-01-02T21:25:36.563Z,12.00
2023-01-02T21:28:03.331Z,12.00
2023-01-02T21:30:30.027Z,12.00
2023-01-02T21:32:56.580Z,12.00
2023-01-02T21:35:23.101Z,11.90
2023-01-02T21:37:49.634Z,11.90
2023-01-02T21:40:16.597Z,11.80
2023-01-02T21:42:45.116Z,11.80
2023-01-02T21:45:11.904Z,11.80
2023-01-02T21:47:38.428Z,11.80
2023-01-02T21:50:05.278Z,11.80
2023-01-02T21:52:31.820Z,11.70
2023-01-02T21:54:58.335Z,11.70
2023-01-02T21:57:45.711Z,11.60
2023-01-02T22:00:13.221Z,11.70
2023-01-02T22:02:39.885Z,11.60
2023-01-02T22:05:06.876Z,11.60
2023-01-02T22:07:35.891Z,11.60
2023-01-02T22:10:05.582Z,11.60
2023-01-02T22:12:32.113Z,11.50
2023-01-02T22:14:58.679Z,11.50
2023-01-02T22:17:25.466Z,11.50
2023-01-02T22:19:52.510Z,11.50
2023-01-02T22:22:19.069Z,11.40
2023-01-02T22:24:46.406Z,11.40
2023-01-02T22:27:14.696Z,11.30
2023-01-02T22:30:18.276Z,11.40
2023-01-02T22:32:31.812Z,11.40
2023-01-02T22:34:58.522Z,11.30
2023-01-02T22:37:25.308Z,11.30
2023-01-02T22:39:52.540Z,11.40
2023-01-02T22:45:27.930Z,11.20
2023-01-02T22:47:56.227Z,11.20
2023-01-02T22:50:24.675Z,11.20
2023-01-02T22:52:51.719Z,11.20
2023-01-02T22:55:20.419Z,11.10
2023-01-02T22:57:51.322Z,11.10
2023-01-02T23:00:19.373Z,11.10
2023-01-02T23:02:46.153Z,11.10
2023-01-02T23:05:16.973Z,11.10
2023-01-02T23:07:43.963Z,11.10
2023-01-02T23:10:11.107Z,11.00
2023-01-02T23:12:37.599Z,11.00
2023-01-02T23:15:04.790Z,11.00
2023-01-02T23:17:49.957Z,11.00
2023-01-02T23:20:16.585Z,11.00
2023-01-02T23:22:43.208Z,10.90
2023-01-02T23:25:09.769Z,10.90
2023-01-02T23:27:36.315Z,10.90
2023-01-02T23:30:03.293Z,10.80
2023-01-02T23:32:29.803Z,10.40
2023-01-02T23:34:56.313Z,10.90
2023-01-02T23:37:22.857Z,10.80
2023-01-02T23:39:49.428Z,10.80
2023-01-02T23:42:15.972Z,10.70
2023-01-02T23:44:43.947Z,10.70
2023-01-02T23:47:15.774Z,10.80
2023-01-02T23:49:45.347Z,10.70
2023-01-02T23:52:11.865Z,10.60
2023-01-02T23:54:38.384Z,10.60
2023-01-02T23:57:04.900Z,10.60
2023-01-02T23:59:31.480Z,10.60
